Time;durP1;ratioP1;P1;durP2;ratioP2;P2;SDS_P1;SDS_P2;PMS_P1;PMS_P2;Temp;Humidity;BMP_temperature;BMP_pressure;BME280_temperature;BME280_humidity;BME280_pressure;Samples;Min_cycle;Max_cycle;Signal;HPM_P1;HPM_P2
2023/02/09 00:02:08;;;;;;;34.78;21.77;;;-0.90;99.90;;;;;;4881097;29;20045;-78
2023/02/09 00:04:36;;;;;;;32.92;21.58;;;-0.90;99.90;;;;;;4897131;29;20064;-78
2023/02/09 00:07:03;;;;;;;35.75;20.65;;;-0.90;99.90;;;;;;4881573;29;20045;-78
2023/02/09 00:09:29;;;;;;;37.35;22.25;;;-0.90;99.90;;;;;;4895534;29;20049;-76
2023/02/09 00:14:42;;;;;;;35.25;21.90;;;-0.90;99.90;;;;;;4895767;29;20491;-76
2023/02/09 00:17:08;;;;;;;32.35;20.55;;;-1.00;99.90;;;;;;4896470;29;20056;-77
2023/02/09 00:19:35;;;;;;;36.50;23.65;;;-1.00;99.90;;;;;;4881976;29;20424;-77
2023/02/09 00:22:02;;;;;;;34.33;21.95;;;-1.00;99.90;;;;;;4880921;29;20052;-77
2023/02/09 00:24:28;;;;;;;36.08;22.13;;;-1.00;99.90;;;;;;4882130;29;20045;-76
2023/02/09 00:26:55;;;;;;;34.25;23.52;;;-0.90;99.90;;;;;;4881313;29;20093;-77
2023/02/09 00:29:22;;;;;;;38.17;22.95;;;-0.70;99.90;;;;;;4881303;29;20055;-77
2023/02/09 00:31:49;;;;;;;42.40;24.90;;;-0.60;99.90;;;;;;4895990;29;20041;-76
2023/02/09 00:34:16;;;;;;;38.55;24.30;;;-0.40;99.90;;;;;;4895185;29;20048;-76
2023/02/09 00:36:43;;;;;;;34.80;21.77;;;-0.40;99.90;;;;;;4881093;29;20045;-79
2023/02/09 00:39:09;;;;;;;43.90;24.50;;;-0.40;99.90;;;;;;4895823;29;20068;-78
2023/02/09 00:44:22;;;;;;;38.83;23.52;;;-0.40;99.90;;;;;;4895693;29;20053;-78
2023/02/09 00:46:48;;;;;;;38.85;22.52;;;-0.30;99.90;;;;;;4880678;29;20065;-77
2023/02/09 00:49:15;;;;;;;34.85;22.65;;;-0.30;99.90;;;;;;4880486;29;20044;-76
2023/02/09 00:51:41;;;;;;;38.28;24.83;;;-0.30;99.90;;;;;;4881202;29;20037;-76
2023/02/09 00:54:08;;;;;;;37.28;24.88;;;-0.30;99.90;;;;;;4895301;29;20057;-76
2023/02/09 00:59:05;;;;;;;36.67;24.23;;;-0.30;99.90;;;;;;4880213;29;20055;-78
2023/02/09 01:01:32;;;;;;;37.33;24.17;;;-0.50;99.90;;;;;;4879553;29;20334;-78
2023/02/09 01:03:59;;;;;;;32.88;22.92;;;-0.50;99.90;;;;;;4880061;29;20049;-79
2023/02/09 01:06:26;;;;;;;42.70;24.85;;;-0.50;99.90;;;;;;4895487;29;20045;-78
2023/02/09 01:08:55;;;;;;;36.72;23.90;;;-0.50;99.90;;;;;;4879976;29;20052;-79
2023/02/09 01:11:25;;;;;;;37.97;23.38;;;-0.40;99.90;;;;;;4880782;29;20048;-78
2023/02/09 01:13:52;;;;;;;38.08;24.67;;;-0.50;99.90;;;;;;4894852;29;20041;-79
2023/02/09 01:16:19;;;;;;;32.08;21.10;;;-0.40;99.90;;;;;;4895180;29;20044;-78
2023/02/09 01:18:46;;;;;;;34.25;22.55;;;-0.40;99.90;;;;;;4880638;29;20064;-78
2023/02/09 01:21:12;;;;;;;38.33;23.27;;;-0.40;99.90;;;;;;4879092;29;20124;-77
2023/02/09 01:23:39;;;;;;;40.67;22.80;;;-0.40;99.90;;;;;;4880796;29;20041;-79
2023/02/09 01:29:10;;;;;;;35.53;21.65;;;-0.50;99.90;;;;;;4894572;29;20392;-76
2023/02/09 01:31:36;;;;;;;32.92;22.13;;;-0.50;99.90;;;;;;4879726;29;20104;-77
2023/02/09 01:34:03;;;;;;;37.38;22.55;;;-0.50;99.90;;;;;;4879872;29;20345;-76
2023/02/09 01:36:32;;;;;;;33.42;21.95;;;-0.60;99.90;;;;;;4880471;29;20044;-77
2023/02/09 01:38:59;;;;;;;33.87;21.73;;;-0.60;99.90;;;;;;4895204;29;20063;-76
2023/02/09 01:41:25;;;;;;;35.58;21.38;;;-0.60;99.90;;;;;;4880044;29;20037;-76
2023/02/09 01:43:52;;;;;;;36.65;22.63;;;-0.60;99.90;;;;;;4895550;29;20099;-77
2023/02/09 01:46:20;;;;;;;35.90;22.98;;;-0.60;99.90;;;;;;4880496;29;20041;-76
2023/02/09 01:48:46;;;;;;;32.60;21.92;;;-0.50;99.90;;;;;;4879960;29;20073;-77
2023/02/09 01:51:13;;;;;;;33.25;22.33;;;-0.60;99.90;;;;;;4880536;29;20041;-76
2023/02/09 01:53:40;;;;;;;34.75;21.95;;;-0.50;99.90;;;;;;4880515;29;20053;-77
2023/02/09 01:56:06;;;;;;;38.80;22.63;;;-0.50;99.90;;;;;;4894143;29;20052;-77
2023/02/09 01:58:33;;;;;;;35.03;21.83;;;-0.60;99.90;;;;;;4880064;29;20064;-76
2023/02/09 02:01:02;;;;;;;32.88;21.45;;;-0.60;99.90;;;;;;4894199;29;20037;-77
2023/02/09 02:03:28;;;;;;;34.60;21.77;;;-0.60;99.90;;;;;;4895077;29;20087;-77
2023/02/09 02:05:56;;;;;;;35.60;23.30;;;-0.70;99.90;;;;;;4879206;29;20353;-77
2023/02/09 02:08:23;;;;;;;33.45;20.63;;;-0.70;99.90;;;;;;4878713;29;20468;-77
2023/02/09 02:10:50;;;;;;;31.58;21.20;;;-0.70;99.90;;;;;;4895661;29;20041;-76
2023/02/09 02:13:16;;;;;;;31.83;20.85;;;-0.70;99.90;;;;;;4876720;29;20387;-76
2023/02/09 02:15:43;;;;;;;36.40;22.65;;;-0.70;99.90;;;;;;4860826;29;20392;-77
2023/02/09 02:18:10;;;;;;;33.08;20.08;;;-0.70;99.90;;;;;;4861792;29;20093;-77
2023/02/09 02:20:36;;;;;;;31.80;21.70;;;-0.70;99.90;;;;;;4877877;29;20053;-77
2023/02/09 02:23:03;;;;;;;36.45;20.83;;;-0.70;99.90;;;;;;4880149;29;20116;-77
2023/02/09 02:25:32;;;;;;;36.25;21.73;;;-0.70;99.90;;;;;;4864908;29;20045;-79
2023/02/09 02:27:59;;;;;;;32.65;21.85;;;-0.70;99.90;;;;;;4878790;29;20485;-77
2023/02/09 02:30:25;;;;;;;32.85;20.85;;;-0.60;99.90;;;;;;4865595;29;20050;-77
2023/02/09 02:32:52;;;;;;;36.38;23.10;;;-0.50;99.90;;;;;;4864841;29;20465;-79
2023/02/09 02:35:19;;;;;;;32.40;20.92;;;-0.50;99.90;;;;;;4864264;29;20060;-79
2023/02/09 02:37:45;;;;;;;34.80;22.02;;;-0.50;99.90;;;;;;4865470;29;20069;-76
2023/02/09 02:40:12;;;;;;;35.90;23.15;;;-0.40;99.90;;;;;;4864741;29;20385;-76
2023/02/09 02:42:48;;;;;;;35.55;19.52;;;-0.30;99.90;;;;;;4864309;29;20057;-77
2023/02/09 02:45:14;;;;;;;34.80;21.35;;;-0.30;99.90;;;;;;4879215;29;20117;-77
2023/02/09 02:47:41;;;;;;;37.47;22.38;;;-0.30;99.90;;;;;;4863724;29;20046;-77
2023/02/09 02:50:08;;;;;;;36.00;22.98;;;-0.30;99.90;;;;;;4879284;29;20144;-78
2023/02/09 02:52:34;;;;;;;38.42;25.10;;;-0.20;99.90;;;;;;4864735;29;20093;-76
2023/02/09 02:55:03;;;;;;;36.05;21.20;;;-0.10;99.90;;;;;;4863648;29;20052;-78
2023/02/09 02:57:30;;;;;;;32.30;22.48;;;-0.10;99.90;;;;;;4864302;29;20060;-78
2023/02/09 02:59:56;;;;;;;34.00;21.90;;;0.00;99.90;;;;;;4864279;29;20063;-77
2023/02/09 03:02:23;;;;;;;34.63;22.02;;;0.00;99.90;;;;;;4878189;29;20053;-77
2023/02/09 03:04:51;;;;;;;37.30;22.83;;;0.10;99.90;;;;;;4864464;29;20131;-77
2023/02/09 03:07:18;;;;;;;35.28;22.70;;;0.10;99.90;;;;;;4863802;29;20049;-77
2023/02/09 03:09:44;;;;;;;34.25;22.65;;;0.10;99.90;;;;;;4864304;29;20124;-77
2023/02/09 03:12:11;;;;;;;31.38;19.80;;;0.10;99.90;;;;;;4864174;29;20465;-77
2023/02/09 03:14:40;;;;;;;34.58;21.75;;;0.00;99.90;;;;;;4877991;29;20053;-77
2023/02/09 03:17:06;;;;;;;32.13;22.08;;;0.00;99.90;;;;;;4864049;29;20053;-77
2023/02/09 03:19:33;;;;;;;37.78;22.50;;;0.00;99.90;;;;;;4864046;29;20137;-77
2023/02/09 03:21:59;;;;;;;31.50;21.33;;;0.00;99.90;;;;;;4877830;29;20057;-77
2023/02/09 03:24:27;;;;;;;34.85;22.98;;;0.00;99.90;;;;;;4878531;29;20145;-77
2023/02/09 03:26:54;;;;;;;33.50;20.58;;;0.00;99.90;;;;;;4863959;29;20056;-77
2023/02/09 03:29:20;;;;;;;33.45;22.15;;;0.00;99.90;;;;;;4877927;29;20050;-76
2023/02/09 03:31:47;;;;;;;33.97;21.17;;;0.00;99.90;;;;;;4877624;29;20045;-78
2023/02/09 03:34:15;;;;;;;34.25;21.40;;;0.00;99.90;;;;;;4863073;29;20433;-77
2023/02/09 03:36:42;;;;;;;33.35;21.50;;;0.00;99.90;;;;;;4878325;29;20052;-76
2023/02/09 03:39:09;;;;;;;32.50;21.63;;;0.00;99.90;;;;;;4878928;29;20049;-76
2023/02/09 03:41:36;;;;;;;34.60;22.20;;;0.00;99.90;;;;;;4862877;29;20045;-77
2023/02/09 03:46:49;;;;;;;32.33;21.85;;;0.00;99.90;;;;;;4863399;29;20056;-78
2023/02/09 03:49:16;;;;;;;31.88;21.05;;;0.00;99.90;;;;;;4863115;29;20556;-79
2023/02/09 03:51:43;;;;;;;30.75;20.58;;;0.10;99.90;;;;;;4863806;29;20051;-78
2023/02/09 03:54:09;;;;;;;30.83;20.75;;;0.10;99.90;;;;;;4862743;29;20049;-78
2023/02/09 03:56:40;;;;;;;31.17;21.73;;;0.20;99.90;;;;;;4863310;29;20479;-79
2023/02/09 03:59:06;;;;;;;30.48;18.50;;;0.20;99.90;;;;;;4863520;29;20050;-78
2023/02/09 04:01:33;;;;;;;30.38;20.40;;;0.20;99.90;;;;;;4862776;29;20049;-78
2023/02/09 04:04:00;;;;;;;31.15;20.60;;;0.10;99.90;;;;;;4877876;29;20388;-78
2023/02/09 04:06:30;;;;;;;31.13;19.48;;;0.10;99.90;;;;;;4877543;29;20046;-79
2023/02/09 04:08:57;;;;;;;35.00;21.63;;;0.10;99.90;;;;;;4876930;29;20496;-78
2023/02/09 04:11:23;;;;;;;33.00;20.10;;;0.10;99.90;;;;;;4867508;29;20049;-78
2023/02/09 04:13:50;;;;;;;30.33;19.55;;;0.10;99.90;;;;;;4879918;29;20057;-79
2023/02/09 04:16:18;;;;;;;25.30;17.05;;;0.10;99.90;;;;;;4896069;29;20369;-78
2023/02/09 04:18:45;;;;;;;28.98;19.95;;;0.10;99.90;;;;;;4881896;29;20084;-78
2023/02/09 04:21:11;;;;;;;33.20;19.75;;;0.00;99.90;;;;;;4879748;29;20045;-78
2023/02/09 04:23:38;;;;;;;26.85;18.67;;;0.10;99.90;;;;;;4882063;29;20037;-78
2023/02/09 04:28:36;;;;;;;28.65;18.20;;;0.20;99.90;;;;;;4880767;29;20056;-79
2023/02/09 04:31:03;;;;;;;29.60;18.70;;;0.20;99.90;;;;;;4895976;29;20109;-79
2023/02/09 04:33:30;;;;;;;27.90;18.75;;;0.30;99.90;;;;;;4896058;29;20468;-78
2023/02/09 04:35:57;;;;;;;24.63;16.70;;;0.30;99.90;;;;;;4880341;29;20412;-78
2023/02/09 04:38:24;;;;;;;27.60;17.10;;;0.30;99.90;;;;;;4881558;29;20432;-78
2023/02/09 04:40:51;;;;;;;25.08;15.73;;;0.30;99.90;;;;;;4880335;29;20048;-78
2023/02/09 04:43:18;;;;;;;28.10;17.52;;;0.30;99.90;;;;;;4880901;29;20041;-79
2023/02/09 04:45:46;;;;;;;26.70;16.70;;;0.20;99.90;;;;;;4880920;29;20468;-78
2023/02/09 04:48:12;;;;;;;32.55;17.95;;;0.30;99.90;;;;;;4894974;29;20049;-78
2023/02/09 04:50:39;;;;;;;24.40;17.13;;;0.30;99.90;;;;;;4895633;29;20049;-78
2023/02/09 04:53:06;;;;;;;26.73;17.80;;;0.30;99.90;;;;;;4880919;29;20053;-78
2023/02/09 04:55:33;;;;;;;26.40;17.02;;;0.30;99.90;;;;;;4879980;29;20416;-78
2023/02/09 05:00:45;;;;;;;29.60;17.95;;;0.30;99.90;;;;;;4880122;29;20064;-78
2023/02/09 05:03:12;;;;;;;27.23;16.88;;;0.40;99.90;;;;;;4881235;29;20045;-79
2023/02/09 05:08:27;;;;;;;25.08;17.05;;;0.60;99.90;;;;;;4880299;29;20384;-78
2023/02/09 05:10:54;;;;;;;27.88;17.02;;;0.80;99.90;;;;;;4879837;29;20384;-78
2023/02/09 05:13:21;;;;;;;27.15;18.52;;;1.00;99.90;;;;;;4895569;29;20049;-78
2023/02/09 05:15:47;;;;;;;23.30;14.98;;;1.20;99.90;;;;;;4879835;29;20045;-78
2023/02/09 05:18:14;;;;;;;22.80;15.63;;;1.30;99.90;;;;;;4880915;29;20484;-79
2023/02/09 05:20:41;;;;;;;21.60;13.23;;;1.40;99.90;;;;;;4894538;29;20041;-78
2023/02/09 05:23:07;;;;;;;25.65;15.90;;;1.40;99.90;;;;;;4895243;29;20109;-78
2023/02/09 05:25:35;;;;;;;23.58;15.85;;;1.40;99.90;;;;;;4895303;29;20041;-79
2023/02/09 05:28:02;;;;;;;23.05;15.10;;;1.40;99.90;;;;;;4880193;29;20037;-79
2023/02/09 05:30:30;;;;;;;23.25;15.18;;;1.30;99.90;;;;;;4880807;29;20139;-79
2023/02/09 05:32:56;;;;;;;22.30;15.05;;;1.30;99.90;;;;;;4880875;29;20048;-78
2023/02/09 05:35:23;;;;;;;20.45;14.32;;;1.30;99.90;;;;;;4879701;29;20133;-79
2023/02/09 05:37:50;;;;;;;20.67;13.48;;;1.30;99.90;;;;;;4895527;29;20049;-79
2023/02/09 05:40:16;;;;;;;21.48;13.18;;;1.30;99.90;;;;;;4895284;29;20052;-78
2023/02/09 05:42:43;;;;;;;20.17;12.02;;;1.40;99.90;;;;;;4880111;29;20045;-78
2023/02/09 05:45:12;;;;;;;20.45;13.57;;;1.50;99.90;;;;;;4880501;29;20075;-78
2023/02/09 05:47:38;;;;;;;19.27;12.98;;;1.60;99.90;;;;;;4880008;29;20104;-78
2023/02/09 05:50:05;;;;;;;23.08;13.48;;;1.80;99.90;;;;;;4880611;29;20132;-79
2023/02/09 05:52:32;;;;;;;15.88;11.55;;;1.90;99.90;;;;;;4895091;29;20815;-77
2023/02/09 05:55:00;;;;;;;19.90;12.98;;;2.00;99.90;;;;;;4881672;29;20392;-78
2023/02/09 05:57:27;;;;;;;20.40;12.13;;;2.10;99.90;;;;;;4899053;29;20045;-77
2023/02/09 05:59:53;;;;;;;17.20;12.80;;;2.20;99.90;;;;;;4884498;29;20436;-78
2023/02/09 06:02:20;;;;;;;18.45;11.90;;;2.20;99.90;;;;;;4897740;29;20040;-77
2023/02/09 06:04:48;;;;;;;17.77;11.05;;;2.20;99.90;;;;;;4898553;29;20056;-77
2023/02/09 06:07:16;;;;;;;14.95;11.00;;;2.20;99.90;;;;;;4897655;29;20057;-77
2023/02/09 06:09:43;;;;;;;17.25;11.95;;;2.20;99.90;;;;;;4898599;29;20412;-77
2023/02/09 06:12:10;;;;;;;17.35;11.48;;;2.20;99.90;;;;;;4883912;29;20045;-76
2023/02/09 06:14:37;;;;;;;16.58;9.95;;;2.20;99.90;;;;;;4883211;29;20076;-77
2023/02/09 06:17:04;;;;;;;16.27;10.45;;;2.20;99.90;;;;;;4883812;29;20045;-78
2023/02/09 06:19:31;;;;;;;15.80;11.75;;;2.30;99.90;;;;;;4898262;29;20071;-76
2023/02/09 06:21:58;;;;;;;15.27;11.15;;;2.30;99.90;;;;;;4882891;29;20041;-77
2023/02/09 06:24:25;;;;;;;16.38;10.85;;;2.30;99.90;;;;;;4898356;29;20041;-77
2023/02/09 06:26:51;;;;;;;16.55;11.75;;;2.30;99.90;;;;;;4898192;29;20044;-78
2023/02/09 06:29:18;;;;;;;16.52;11.18;;;2.30;99.90;;;;;;4882850;29;20041;-77
2023/02/09 06:31:44;;;;;;;17.20;11.27;;;2.40;99.90;;;;;;4883591;29;20048;-77
2023/02/09 06:34:11;;;;;;;14.70;11.57;;;2.40;99.90;;;;;;4897217;29;20120;-77
2023/02/09 06:36:39;;;;;;;17.52;12.10;;;2.40;99.90;;;;;;4883284;29;20049;-77
2023/02/09 06:39:06;;;;;;;17.50;11.15;;;2.40;99.90;;;;;;4898322;29;20067;-77
2023/02/09 06:41:32;;;;;;;18.95;12.10;;;2.50;99.90;;;;;;4882330;29;20413;-77
2023/02/09 06:43:59;;;;;;;15.68;9.73;;;2.50;99.90;;;;;;4883283;29;20047;-77
2023/02/09 06:46:27;;;;;;;18.00;10.90;;;2.60;99.90;;;;;;4897717;29;20037;-77
2023/02/09 06:48:54;;;;;;;19.20;11.15;;;2.60;99.90;;;;;;4882822;29;20048;-77
2023/02/09 06:51:21;;;;;;;12.40;9.98;;;2.70;99.90;;;;;;4883291;29;20083;-78
2023/02/09 06:53:48;;;;;;;17.63;11.35;;;2.70;99.90;;;;;;4897655;29;20088;-76
2023/02/09 06:56:14;;;;;;;17.23;10.93;;;2.80;99.90;;;;;;4897398;29;20457;-77
2023/02/09 06:58:41;;;;;;;16.33;10.13;;;2.90;99.90;;;;;;4897895;29;20120;-77
2023/02/09 07:01:08;;;;;;;18.02;11.57;;;2.90;99.90;;;;;;4882148;29;20048;-78
2023/02/09 07:03:34;;;;;;;15.90;11.55;;;2.90;99.90;;;;;;4883055;29;20055;-77
2023/02/09 07:06:01;;;;;;;17.17;11.00;;;3.00;99.90;;;;;;4897087;29;20379;-78
2023/02/09 07:08:28;;;;;;;17.75;10.00;;;3.00;99.90;;;;;;4882227;29;20041;-77
2023/02/09 07:10:54;;;;;;;18.13;12.35;;;3.00;99.90;;;;;;4897468;29;20581;-78
2023/02/09 07:13:21;;;;;;;17.75;10.40;;;3.10;99.90;;;;;;4882757;29;20045;-78
2023/02/09 07:15:48;;;;;;;16.20;10.00;;;3.10;99.90;;;;;;4896330;29;20045;-78
2023/02/09 07:18:15;;;;;;;14.13;10.05;;;3.10;99.90;;;;;;4882603;29;20065;-77
2023/02/09 07:20:41;;;;;;;13.07;10.05;;;3.10;99.90;;;;;;4881731;29;20045;-77
2023/02/09 07:23:08;;;;;;;15.15;10.40;;;3.10;99.90;;;;;;4882373;29;20041;-77
2023/02/09 07:25:36;;;;;;;17.73;11.02;;;3.20;99.90;;;;;;4882053;29;20511;-77
2023/02/09 07:28:03;;;;;;;15.18;10.55;;;3.20;99.90;;;;;;4896466;29;20041;-76
2023/02/09 07:30:29;;;;;;;16.58;10.77;;;3.30;99.90;;;;;;4882561;29;20132;-77
2023/02/09 07:32:56;;;;;;;14.18;10.85;;;3.30;99.90;;;;;;4882624;29;20052;-78
2023/02/09 07:35:23;;;;;;;18.85;12.73;;;3.40;99.90;;;;;;4881636;29;20105;-77
2023/02/09 07:37:49;;;;;;;14.27;10.43;;;3.40;99.90;;;;;;4882512;29;20113;-77
2023/02/09 07:40:16;;;;;;;12.80;10.05;;;3.40;99.90;;;;;;4882590;29;20045;-79
2023/02/09 07:42:43;;;;;;;20.52;12.73;;;3.50;99.90;;;;;;4895971;29;20060;-79
2023/02/09 07:45:10;;;;;;;15.77;11.15;;;3.50;99.90;;;;;;4896699;29;20049;-79
2023/02/09 07:47:37;;;;;;;18.73;13.43;;;3.60;99.90;;;;;;4896114;29;20068;-80
2023/02/09 07:50:04;;;;;;;20.95;12.90;;;3.60;99.90;;;;;;4896788;29;20040;-81
2023/02/09 07:52:31;;;;;;;18.42;11.25;;;3.70;99.90;;;;;;4882120;29;20049;-81
2023/02/09 07:54:57;;;;;;;17.48;12.52;;;3.80;99.90;;;;;;4881094;29;20112;-81
2023/02/09 07:57:26;;;;;;;16.35;12.48;;;3.80;99.90;;;;;;4896682;29;20063;-81
2023/02/09 07:59:52;;;;;;;17.90;11.73;;;3.90;99.90;;;;;;4896826;29;20372;-79
2023/02/09 08:02:19;;;;;;;20.48;13.00;;;3.90;99.90;;;;;;4896394;29;20045;-80
2023/02/09 08:07:31;;;;;;;19.02;11.77;;;4.00;99.90;;;;;;4881138;29;20048;-76
2023/02/09 08:09:58;;;;;;;18.50;12.65;;;4.00;99.90;;;;;;4881911;29;20353;-79
2023/02/09 08:12:58;;;;;;;16.98;11.80;;;4.10;99.90;;;;;;4881689;29;20041;-77
2023/02/09 08:17:58;;;;;;;17.15;11.98;;;4.10;99.90;;;;;;4881162;29;20125;-79
2023/02/09 08:20:25;;;;;;;16.67;11.82;;;4.10;99.90;;;;;;4884142;29;20041;-78
2023/02/09 08:22:52;;;;;;;19.83;11.45;;;4.20;99.90;;;;;;4882024;29;20049;-78
2023/02/09 08:25:20;;;;;;;24.10;12.32;;;4.20;99.90;;;;;;4881168;29;20041;-79
2023/02/09 08:27:46;;;;;;;19.42;12.35;;;4.30;99.90;;;;;;4880731;29;20053;-79
2023/02/09 08:30:13;;;;;;;20.33;13.45;;;4.30;99.90;;;;;;4881393;29;20346;-79
2023/02/09 08:32:40;;;;;;;17.42;11.25;;;4.30;99.90;;;;;;4881219;29;20067;-79
2023/02/09 08:35:07;;;;;;;18.25;12.10;;;4.30;99.90;;;;;;4880122;29;20052;-78
2023/02/09 08:37:34;;;;;;;20.60;13.85;;;4.40;99.90;;;;;;4900551;29;20440;-78
2023/02/09 08:40:01;;;;;;;20.48;13.55;;;4.40;99.90;;;;;;4900603;29;20040;-79
2023/02/09 08:42:27;;;;;;;18.25;11.70;;;4.40;99.90;;;;;;4882579;29;20060;-79
2023/02/09 08:44:56;;;;;;;20.85;11.20;;;4.40;99.90;;;;;;4881234;29;20071;-78
2023/02/09 08:47:23;;;;;;;19.73;12.93;;;4.50;99.90;;;;;;4895017;29;20067;-79
2023/02/09 08:49:50;;;;;;;23.33;13.85;;;4.50;99.90;;;;;;4881326;29;20045;-78
2023/02/09 08:52:17;;;;;;;16.77;11.63;;;4.50;99.90;;;;;;4881323;29;20412;-78
2023/02/09 08:54:44;;;;;;;20.95;15.20;;;4.50;99.90;;;;;;4894766;29;20045;-78
2023/02/09 08:57:11;;;;;;;21.00;13.38;;;4.50;99.90;;;;;;4896324;29;20048;-78
2023/02/09 08:59:38;;;;;;;23.05;14.88;;;4.50;99.90;;;;;;4881053;29;20105;-78
2023/02/09 09:02:04;;;;;;;24.77;14.68;;;4.60;99.90;;;;;;4879971;29;20460;-78
2023/02/09 09:04:32;;;;;;;23.02;16.25;;;4.60;99.90;;;;;;4883117;29;20041;-79
2023/02/09 09:06:59;;;;;;;26.02;16.05;;;4.70;99.90;;;;;;4885899;29;20439;-79
2023/02/09 09:09:25;;;;;;;20.13;13.55;;;4.70;99.90;;;;;;4881358;29;20471;-81
2023/02/09 09:11:52;;;;;;;28.83;16.52;;;4.80;99.90;;;;;;4885892;29;20053;-81
2023/02/09 09:14:19;;;;;;;20.08;14.57;;;4.80;99.90;;;;;;4866894;29;20059;-81
2023/02/09 09:16:45;;;;;;;23.00;13.98;;;4.80;99.90;;;;;;4870139;29;20135;-83
2023/02/09 09:19:12;;;;;;;18.92;13.95;;;4.80;99.90;;;;;;4879413;29;20091;-85
2023/02/09 09:21:39;;;;;;;22.02;14.38;;;4.90;99.90;;;;;;4878214;29;20049;-82
2023/02/09 09:24:05;;;;;;;25.70;13.80;;;4.90;99.90;;;;;;4892006;29;20041;-82
2023/02/09 09:26:32;;;;;;;27.15;14.90;;;4.90;99.90;;;;;;4894539;29;20136;-82
2023/02/09 09:28:59;;;;;;;20.65;14.80;;;4.90;99.90;;;;;;4895200;29;20053;-82
2023/02/09 09:31:25;;;;;;;20.02;12.68;;;5.00;99.90;;;;;;4884467;29;20049;-82
2023/02/09 09:33:52;;;;;;;21.92;14.85;;;5.00;99.90;;;;;;4897709;29;20136;-82
2023/02/09 09:36:19;;;;;;;17.17;13.52;;;5.00;99.90;;;;;;4883592;29;20045;-82
2023/02/09 09:38:46;;;;;;;24.02;15.05;;;5.00;99.90;;;;;;4883944;29;20064;-83
2023/02/09 09:41:12;;;;;;;22.67;15.70;;;5.00;99.90;;;;;;4897433;29;20048;-83
2023/02/09 09:43:39;;;;;;;18.33;13.40;;;5.00;99.90;;;;;;4882806;29;20048;-83
2023/02/09 09:46:05;;;;;;;20.33;14.10;;;5.00;99.90;;;;;;4899126;29;20049;-84
2023/02/09 09:48:32;;;;;;;20.85;14.50;;;5.00;99.90;;;;;;4888565;29;20041;-82
2023/02/09 09:50:59;;;;;;;21.10;13.23;;;5.00;99.90;;;;;;4898028;29;20053;-83
2023/02/09 09:53:27;;;;;;;18.55;13.57;;;5.00;99.90;;;;;;4883287;29;20045;-83
2023/02/09 09:58:24;;;;;;;22.73;14.13;;;5.00;99.90;;;;;;4883895;29;20047;-84
2023/02/09 10:00:50;;;;;;;23.10;13.85;;;5.10;99.90;;;;;;4885850;29;20049;-84
2023/02/09 10:03:17;;;;;;;20.98;14.35;;;5.20;99.90;;;;;;4878504;29;20045;-84
2023/02/09 10:05:44;;;;;;;18.08;13.27;;;5.30;99.90;;;;;;4891490;29;20024;-83
2023/02/09 10:08:11;;;;;;;18.63;13.80;;;5.40;99.90;;;;;;4889468;29;20045;-83
2023/02/09 10:10:38;;;;;;;21.30;14.57;;;5.50;99.90;;;;;;4883266;29;20057;-84
2023/02/09 10:13:04;;;;;;;23.77;15.25;;;5.60;99.90;;;;;;4882291;29;20573;-83
2023/02/09 10:15:31;;;;;;;20.63;15.23;;;5.60;99.90;;;;;;4896234;29;20052;-83
2023/02/09 10:17:58;;;;;;;23.80;15.63;;;5.70;99.90;;;;;;4883835;29;20081;-83
2023/02/09 10:20:24;;;;;;;22.08;14.48;;;5.80;99.90;;;;;;4898334;29;20048;-83
2023/02/09 10:22:51;;;;;;;20.60;14.70;;;5.90;99.90;;;;;;4882556;29;20047;-86
2023/02/09 10:25:18;;;;;;;22.33;14.90;;;6.10;99.90;;;;;;4897660;29;20370;-86
2023/02/09 10:27:44;;;;;;;23.10;14.30;;;6.10;99.90;;;;;;4866483;29;20045;-85
2023/02/09 10:30:11;;;;;;;24.58;15.65;;;6.10;99.90;;;;;;4898294;29;20057;-86
2023/02/09 10:32:37;;;;;;;25.77;14.77;;;6.30;99.90;;;;;;4898577;29;20465;-84
2023/02/09 10:35:07;;;;;;;21.85;14.15;;;6.30;99.90;;;;;;4881924;29;20049;-85
2023/02/09 10:37:34;;;;;;;22.02;13.75;;;6.30;99.90;;;;;;4867111;29;20116;-85
2023/02/09 10:40:01;;;;;;;23.25;13.55;;;6.30;99.90;;;;;;4883100;29;20049;-85
2023/02/09 10:42:27;;;;;;;23.40;15.18;;;6.40;99.90;;;;;;4865211;29;20361;-83
2023/02/09 10:44:54;;;;;;;23.20;15.00;;;6.50;99.90;;;;;;4863982;29;20064;-83
2023/02/09 10:47:24;;;;;;;22.90;14.27;;;6.50;99.90;;;;;;4847950;29;20037;-82
2023/02/09 10:49:50;;;;;;;;;;;6.50;99.90;;;;;;4879939;29;20049;-86
2023/02/09 10:52:18;;;;;;;22.42;14.25;;;6.50;99.90;;;;;;4865301;29;19994;-83
2023/02/09 10:54:45;;;;;;;22.17;14.55;;;6.80;99.90;;;;;;4881396;29;20073;-85
2023/02/09 10:57:12;;;;;;;22.48;14.40;;;6.90;99.90;;;;;;4883166;29;20128;-87
2023/02/09 10:59:38;;;;;;;23.95;14.73;;;7.00;99.90;;;;;;4865916;29;20508;-83
2023/02/09 11:02:05;;;;;;;25.92;16.00;;;7.10;99.90;;;;;;4847695;29;20476;-85
2023/02/09 11:04:32;;;;;;;22.05;14.32;;;7.10;99.90;;;;;;4864580;29;20053;-84
2023/02/09 11:06:59;;;;;;;23.75;14.27;;;7.10;99.90;;;;;;4865969;29;20457;-83
2023/02/09 11:09:25;;;;;;;20.88;13.20;;;7.60;99.90;;;;;;4863173;29;20049;-82
2023/02/09 11:11:52;;;;;;;21.42;14.23;;;8.20;99.90;;;;;;4871128;29;20531;-87
2023/02/09 11:14:18;;;;;;;19.80;14.38;;;8.40;99.90;;;;;;4893674;29;20048;-85
2023/02/09 11:16:45;;;;;;;20.63;15.77;;;8.40;99.90;;;;;;4894344;29;20473;-83
2023/02/09 11:19:12;;;;;;;23.50;13.93;;;8.40;99.90;;;;;;4893890;29;20377;-85
2023/02/09 11:21:39;;;;;;;20.67;14.93;;;8.30;99.90;;;;;;4893342;29;20148;-85
2023/02/09 11:24:05;;;;;;;25.50;16.33;;;8.20;99.90;;;;;;4895088;29;20127;-84
2023/02/09 11:26:32;;;;;;;26.15;15.32;;;8.20;99.90;;;;;;4894611;29;20049;-85
2023/02/09 11:28:59;;;;;;;28.40;15.45;;;8.20;99.90;;;;;;4900436;29;20046;-89
2023/02/09 11:31:25;;;;;;;25.27;14.32;;;8.20;99.90;;;;;;4894911;29;20045;-86
2023/02/09 11:33:52;;;;;;;25.77;14.88;;;8.30;99.90;;;;;;4893658;29;20055;-85
2023/02/09 11:36:19;;;;;;;24.20;14.80;;;8.20;99.90;;;;;;4896668;29;20052;-85
2023/02/09 11:38:45;;;;;;;22.08;14.05;;;8.20;99.90;;;;;;4897738;29;20043;-89
2023/02/09 11:43:58;;;;;;;23.92;15.25;;;8.10;99.90;;;;;;4882535;29;20140;-84
2023/02/09 11:46:24;;;;;;;22.65;17.13;;;8.40;99.90;;;;;;4887817;29;20110;-83
2023/02/09 11:48:51;;;;;;;21.55;14.73;;;8.80;99.90;;;;;;4883587;29;20077;-86
2023/02/09 11:51:18;;;;;;;23.60;15.10;;;9.10;99.90;;;;;;4873810;29;20053;-86
2023/02/09 11:53:44;;;;;;;23.35;15.18;;;9.60;99.90;;;;;;4899427;29;20045;-84
2023/02/09 11:58:41;;;;;;;22.63;15.48;;;10.50;99.90;;;;;;4900767;29;20053;-84
2023/02/09 12:01:07;;;;;;;22.13;14.63;;;10.60;99.90;;;;;;4900580;29;20049;-85
2023/02/09 12:03:41;;;;;;;23.73;16.52;;;10.80;99.90;;;;;;4898238;29;20166;-84
2023/02/09 12:06:08;;;;;;;20.90;15.15;;;11.00;99.90;;;;;;4897111;29;20483;-82
2023/02/09 12:08:36;;;;;;;23.00;14.63;;;11.10;99.90;;;;;;4896804;29;20093;-83
2023/02/09 12:11:03;;;;;;;25.08;15.52;;;10.90;99.90;;;;;;4897319;29;20093;-84
2023/02/09 12:13:30;;;;;;;22.05;15.15;;;10.40;99.90;;;;;;4896589;29;20124;-81
2023/02/09 12:15:56;;;;;;;22.73;14.77;;;10.00;99.90;;;;;;4881049;29;20053;-83
2023/02/09 12:18:23;;;;;;;20.50;13.77;;;9.60;99.90;;;;;;4896688;29;20065;-85
2023/02/09 12:20:50;;;;;;;23.10;14.95;;;9.40;99.90;;;;;;4896569;29;20056;-85
2023/02/09 12:23:17;;;;;;;24.80;14.48;;;9.20;99.90;;;;;;4880114;29;20049;-90
2023/02/09 12:25:44;;;;;;;20.85;14.80;;;9.10;99.90;;;;;;4865106;29;20049;-85
2023/02/09 12:28:10;;;;;;;20.70;14.63;;;9.10;99.90;;;;;;4884481;29;20044;-85
2023/02/09 12:30:37;;;;;;;22.63;14.50;;;9.00;99.90;;;;;;4900652;29;20409;-86
2023/02/09 12:33:04;;;;;;;21.10;15.35;;;8.90;99.90;;;;;;4887166;29;20048;-85
2023/02/09 12:35:30;;;;;;;23.48;15.98;;;8.90;99.90;;;;;;4881305;29;20049;-83
2023/02/09 12:37:57;;;;;;;22.77;14.30;;;8.90;99.90;;;;;;4882219;29;20401;-85
2023/02/09 12:40:24;;;;;;;30.88;17.80;;;8.90;99.90;;;;;;4881868;29;20063;-83
2023/02/09 12:42:50;;;;;;;19.80;14.60;;;9.00;99.90;;;;;;4881807;29;20437;-83
2023/02/09 12:48:04;;;;;;;21.05;14.70;;;9.10;99.90;;;;;;4896384;29;20056;-85
2023/02/09 12:50:30;;;;;;;25.23;15.50;;;9.20;99.90;;;;;;4896488;29;20060;-85
2023/02/09 12:52:57;;;;;;;26.70;15.55;;;9.20;99.90;;;;;;4885944;29;20053;-83
2023/02/09 12:58:11;;;;;;;22.55;14.68;;;9.30;99.90;;;;;;4900153;29;20068;-83
2023/02/09 13:00:37;;;;;;;21.17;13.57;;;9.30;99.90;;;;;;4894163;29;20444;-85
2023/02/09 13:03:04;;;;;;;19.45;14.10;;;9.20;99.90;;;;;;4880352;29;20045;-82
2023/02/09 13:05:36;;;;;;;23.17;15.45;;;9.20;99.90;;;;;;4880935;29;20384;-84
2023/02/09 13:08:03;;;;;;;24.83;15.50;;;9.20;99.90;;;;;;4896255;29;20112;-87
2023/02/09 13:10:30;;;;;;;20.55;15.57;;;9.10;99.90;;;;;;4880837;29;20052;-86
2023/02/09 13:12:56;;;;;;;19.08;14.23;;;9.20;99.90;;;;;;4897059;29;20144;-85
2023/02/09 13:15:24;;;;;;;20.27;14.90;;;9.20;99.90;;;;;;4884059;29;20049;-83